<?xml version="1.0" encoding="UTF-8"?>
<gpx creator="Wikiloc - https://www.wikiloc.com" version="1.1" xmlns="http://www.topografix.com/GPX/1/1" xmlns:xsi="http://www.w3.org/2001/XMLSchema-instance" xsi:schemaLocation="http://www.topografix.com/GPX/1/1 http://www.topografix.com/GPX/1/1/gpx.xsd">
  <metadata>
    <name>Wikiloc - bertem 20 km</name>
    <author>
      <name>rolandrydams@gmail.com</name>
      <link href="https://www.wikiloc.com/wikiloc/user.do?id=3008701">
        <text>rolandrydams@gmail.com on Wikiloc</text>
      </link>
    </author>
    <link href="https://www.wikiloc.com/horseback-riding-trails/bertem-20-km-71934459">
      <text>bertem 20 km on Wikiloc</text>
    </link>
    <time>2021-05-01T20:53:19Z</time>
  </metadata>
  <trk>
    <name>bertem 20 km</name>
    <cmt>carpool Bertem</cmt>
    <desc>carpool Bertem</desc>
    <trkseg>
      <trkpt lat="50.862027" lon="4.612484">
        <ele>49.792</ele>
        <time>2021-05-02T20:39:14Z</time>
      </trkpt>
      <trkpt lat="50.861456" lon="4.613019">
        <ele>51.573</ele>
        <time>2021-05-02T20:39:34Z</time>
      </trkpt>
      <trkpt lat="50.860185" lon="4.608334">
        <ele>54.320</ele>
        <time>2021-05-02T20:39:54Z</time>
      </trkpt>
      <trkpt lat="50.860581" lon="4.607779">
        <ele>52.108</ele>
        <time>2021-05-02T20:40:14Z</time>
      </trkpt>
      <trkpt lat="50.861463" lon="4.605414">
        <ele>58.276</ele>
        <time>2021-05-02T20:40:34Z</time>
      </trkpt>
      <trkpt lat="50.862024" lon="4.601002">
        <ele>62.830</ele>
        <time>2021-05-02T20:40:54Z</time>
      </trkpt>
      <trkpt lat="50.863534" lon="4.593371">
        <ele>63.918</ele>
        <time>2021-05-02T20:41:14Z</time>
      </trkpt>
      <trkpt lat="50.863849" lon="4.591261">
        <ele>67.022</ele>
        <time>2021-05-02T20:41:34Z</time>
      </trkpt>
      <trkpt lat="50.861522" lon="4.589906">
        <ele>54.013</ele>
        <time>2021-05-02T20:41:54Z</time>
      </trkpt>
      <trkpt lat="50.861462" lon="4.589413">
        <ele>51.913</ele>
        <time>2021-05-02T20:42:14Z</time>
      </trkpt>
      <trkpt lat="50.859352" lon="4.587942">
        <ele>50.044</ele>
        <time>2021-05-02T20:42:34Z</time>
      </trkpt>
      <trkpt lat="50.858434" lon="4.586788">
        <ele>47.918</ele>
        <time>2021-05-02T20:42:54Z</time>
      </trkpt>
      <trkpt lat="50.857807" lon="4.584247">
        <ele>49.957</ele>
        <time>2021-05-02T20:43:14Z</time>
      </trkpt>
      <trkpt lat="50.856170" lon="4.578644">
        <ele>53.700</ele>
        <time>2021-05-02T20:43:34Z</time>
      </trkpt>
      <trkpt lat="50.856072" lon="4.577897">
        <ele>55.020</ele>
        <time>2021-05-02T20:43:54Z</time>
      </trkpt>
      <trkpt lat="50.854236" lon="4.571218">
        <ele>57.008</ele>
        <time>2021-05-02T20:44:14Z</time>
      </trkpt>
      <trkpt lat="50.854572" lon="4.569417">
        <ele>58.872</ele>
        <time>2021-05-02T20:44:34Z</time>
      </trkpt>
      <trkpt lat="50.853809" lon="4.567520">
        <ele>59.986</ele>
        <time>2021-05-02T20:44:54Z</time>
      </trkpt>
      <trkpt lat="50.853480" lon="4.565184">
        <ele>64.594</ele>
        <time>2021-05-02T20:45:14Z</time>
      </trkpt>
      <trkpt lat="50.852908" lon="4.563390">
        <ele>65.528</ele>
        <time>2021-05-02T20:45:34Z</time>
      </trkpt>
      <trkpt lat="50.852691" lon="4.563301">
        <ele>66.629</ele>
        <time>2021-05-02T20:45:54Z</time>
      </trkpt>
      <trkpt lat="50.853128" lon="4.557539">
        <ele>73.089</ele>
        <time>2021-05-02T20:46:14Z</time>
      </trkpt>
      <trkpt lat="50.852872" lon="4.555895">
        <ele>76.660</ele>
        <time>2021-05-02T20:46:34Z</time>
      </trkpt>
      <trkpt lat="50.853243" lon="4.554669">
        <ele>79.514</ele>
        <time>2021-05-02T20:46:54Z</time>
      </trkpt>
      <trkpt lat="50.852961" lon="4.553381">
        <ele>80.311</ele>
        <time>2021-05-02T20:47:14Z</time>
      </trkpt>
      <trkpt lat="50.850168" lon="4.553676">
        <ele>80.021</ele>
        <time>2021-05-02T20:47:34Z</time>
      </trkpt>
      <trkpt lat="50.849500" lon="4.556478">
        <ele>77.003</ele>
        <time>2021-05-02T20:47:54Z</time>
      </trkpt>
      <trkpt lat="50.849436" lon="4.557951">
        <ele>74.008</ele>
        <time>2021-05-02T20:48:14Z</time>
      </trkpt>
      <trkpt lat="50.848982" lon="4.562123">
        <ele>72.838</ele>
        <time>2021-05-02T20:48:34Z</time>
      </trkpt>
      <trkpt lat="50.846310" lon="4.567369">
        <ele>80.792</ele>
        <time>2021-05-02T20:48:54Z</time>
      </trkpt>
      <trkpt lat="50.846805" lon="4.568862">
        <ele>78.190</ele>
        <time>2021-05-02T20:49:14Z</time>
      </trkpt>
      <trkpt lat="50.846605" lon="4.569541">
        <ele>74.584</ele>
        <time>2021-05-02T20:49:34Z</time>
      </trkpt>
      <trkpt lat="50.845813" lon="4.572432">
        <ele>68.755</ele>
        <time>2021-05-02T20:49:54Z</time>
      </trkpt>
      <trkpt lat="50.845613" lon="4.573658">
        <ele>62.985</ele>
        <time>2021-05-02T20:50:14Z</time>
      </trkpt>
      <trkpt lat="50.845408" lon="4.574179">
        <ele>58.366</ele>
        <time>2021-05-02T20:50:34Z</time>
      </trkpt>
      <trkpt lat="50.842694" lon="4.580264">
        <ele>53.040</ele>
        <time>2021-05-02T20:50:54Z</time>
      </trkpt>
      <trkpt lat="50.841829" lon="4.580957">
        <ele>49.815</ele>
        <time>2021-05-02T20:51:14Z</time>
      </trkpt>
      <trkpt lat="50.839686" lon="4.584048">
        <ele>52.865</ele>
        <time>2021-05-02T20:51:34Z</time>
      </trkpt>
      <trkpt lat="50.836823" lon="4.586667">
        <ele>69.411</ele>
        <time>2021-05-02T20:51:54Z</time>
      </trkpt>
      <trkpt lat="50.834722" lon="4.588593">
        <ele>84.008</ele>
        <time>2021-05-02T20:52:14Z</time>
      </trkpt>
      <trkpt lat="50.832788" lon="4.590088">
        <ele>90.928</ele>
        <time>2021-05-02T20:52:34Z</time>
      </trkpt>
      <trkpt lat="50.832068" lon="4.589218">
        <ele>90.982</ele>
        <time>2021-05-02T20:52:54Z</time>
      </trkpt>
      <trkpt lat="50.832068" lon="4.590588">
        <ele>92.460</ele>
        <time>2021-05-02T20:53:14Z</time>
      </trkpt>
      <trkpt lat="50.832546" lon="4.593849">
        <ele>87.894</ele>
        <time>2021-05-02T20:53:34Z</time>
      </trkpt>
      <trkpt lat="50.831733" lon="4.596553">
        <ele>86.265</ele>
        <time>2021-05-02T20:53:54Z</time>
      </trkpt>
      <trkpt lat="50.831647" lon="4.596347">
        <ele>83.745</ele>
        <time>2021-05-02T20:54:14Z</time>
      </trkpt>
      <trkpt lat="50.830424" lon="4.594903">
        <ele>77.196</ele>
        <time>2021-05-02T20:54:34Z</time>
      </trkpt>
      <trkpt lat="50.829559" lon="4.594294">
        <ele>76.490</ele>
        <time>2021-05-02T20:54:54Z</time>
      </trkpt>
      <trkpt lat="50.828309" lon="4.592370">
        <ele>68.249</ele>
        <time>2021-05-02T20:55:14Z</time>
      </trkpt>
      <trkpt lat="50.827533" lon="4.591850">
        <ele>70.202</ele>
        <time>2021-05-02T20:55:34Z</time>
      </trkpt>
      <trkpt lat="50.826758" lon="4.592015">
        <ele>66.022</ele>
        <time>2021-05-02T20:55:54Z</time>
      </trkpt>
      <trkpt lat="50.826596" lon="4.592056">
        <ele>65.208</ele>
        <time>2021-05-02T20:56:14Z</time>
      </trkpt>
      <trkpt lat="50.825953" lon="4.592447">
        <ele>62.181</ele>
        <time>2021-05-02T20:56:34Z</time>
      </trkpt>
      <trkpt lat="50.824647" lon="4.594338">
        <ele>60.685</ele>
        <time>2021-05-02T20:56:54Z</time>
      </trkpt>
      <trkpt lat="50.822777" lon="4.594832">
        <ele>57.873</ele>
        <time>2021-05-02T20:57:14Z</time>
      </trkpt>
      <trkpt lat="50.822322" lon="4.597017">
        <ele>58.057</ele>
        <time>2021-05-02T20:57:34Z</time>
      </trkpt>
      <trkpt lat="50.822476" lon="4.598031">
        <ele>58.858</ele>
        <time>2021-05-02T20:57:54Z</time>
      </trkpt>
      <trkpt lat="50.822442" lon="4.599305">
        <ele>57.168</ele>
        <time>2021-05-02T20:58:14Z</time>
      </trkpt>
      <trkpt lat="50.822723" lon="4.600461">
        <ele>54.129</ele>
        <time>2021-05-02T20:58:34Z</time>
      </trkpt>
      <trkpt lat="50.821224" lon="4.602745">
        <ele>58.033</ele>
        <time>2021-05-02T20:58:54Z</time>
      </trkpt>
      <trkpt lat="50.820602" lon="4.603170">
        <ele>56.134</ele>
        <time>2021-05-02T20:59:14Z</time>
      </trkpt>
      <trkpt lat="50.819767" lon="4.604212">
        <ele>54.655</ele>
        <time>2021-05-02T20:59:34Z</time>
      </trkpt>
      <trkpt lat="50.819371" lon="4.605589">
        <ele>53.310</ele>
        <time>2021-05-02T20:59:54Z</time>
      </trkpt>
      <trkpt lat="50.818592" lon="4.606419">
        <ele>50.008</ele>
        <time>2021-05-02T21:00:14Z</time>
      </trkpt>
      <trkpt lat="50.818345" lon="4.608251">
        <ele>48.790</ele>
        <time>2021-05-02T21:00:34Z</time>
      </trkpt>
      <trkpt lat="50.820152" lon="4.610661">
        <ele>66.724</ele>
        <time>2021-05-02T21:00:54Z</time>
      </trkpt>
      <trkpt lat="50.821936" lon="4.611774">
        <ele>81.972</ele>
        <time>2021-05-02T21:01:14Z</time>
      </trkpt>
      <trkpt lat="50.822181" lon="4.611856">
        <ele>83.776</ele>
        <time>2021-05-02T21:01:34Z</time>
      </trkpt>
      <trkpt lat="50.823233" lon="4.613407">
        <ele>83.057</ele>
        <time>2021-05-02T21:01:54Z</time>
      </trkpt>
      <trkpt lat="50.823585" lon="4.612731">
        <ele>83.247</ele>
        <time>2021-05-02T21:02:14Z</time>
      </trkpt>
      <trkpt lat="50.825773" lon="4.613323">
        <ele>81.848</ele>
        <time>2021-05-02T21:02:34Z</time>
      </trkpt>
      <trkpt lat="50.828090" lon="4.611806">
        <ele>84.972</ele>
        <time>2021-05-02T21:02:54Z</time>
      </trkpt>
      <trkpt lat="50.829175" lon="4.611649">
        <ele>75.913</ele>
        <time>2021-05-02T21:03:14Z</time>
      </trkpt>
      <trkpt lat="50.829386" lon="4.612481">
        <ele>75.443</ele>
        <time>2021-05-02T21:03:34Z</time>
      </trkpt>
      <trkpt lat="50.829715" lon="4.611877">
        <ele>73.007</ele>
        <time>2021-05-02T21:03:54Z</time>
      </trkpt>
      <trkpt lat="50.832796" lon="4.611438">
        <ele>70.708</ele>
        <time>2021-05-02T21:04:14Z</time>
      </trkpt>
      <trkpt lat="50.833077" lon="4.611288">
        <ele>69.478</ele>
        <time>2021-05-02T21:04:34Z</time>
      </trkpt>
      <trkpt lat="50.833452" lon="4.612407">
        <ele>67.452</ele>
        <time>2021-05-02T21:04:54Z</time>
      </trkpt>
      <trkpt lat="50.836875" lon="4.615238">
        <ele>71.970</ele>
        <time>2021-05-02T21:05:14Z</time>
      </trkpt>
      <trkpt lat="50.837522" lon="4.614799">
        <ele>73.034</ele>
        <time>2021-05-02T21:05:34Z</time>
      </trkpt>
      <trkpt lat="50.835415" lon="4.616052">
        <ele>72.045</ele>
        <time>2021-05-02T21:05:54Z</time>
      </trkpt>
      <trkpt lat="50.836767" lon="4.621870">
        <ele>58.385</ele>
        <time>2021-05-02T21:06:14Z</time>
      </trkpt>
      <trkpt lat="50.835984" lon="4.626218">
        <ele>47.696</ele>
        <time>2021-05-02T21:06:34Z</time>
      </trkpt>
      <trkpt lat="50.836240" lon="4.627268">
        <ele>44.910</ele>
        <time>2021-05-02T21:06:54Z</time>
      </trkpt>
      <trkpt lat="50.837082" lon="4.630135">
        <ele>47.552</ele>
        <time>2021-05-02T21:07:14Z</time>
      </trkpt>
      <trkpt lat="50.837128" lon="4.631907">
        <ele>39.053</ele>
        <time>2021-05-02T21:07:34Z</time>
      </trkpt>
      <trkpt lat="50.836572" lon="4.634520">
        <ele>38.908</ele>
        <time>2021-05-02T21:07:54Z</time>
      </trkpt>
      <trkpt lat="50.836870" lon="4.636041">
        <ele>40.408</ele>
        <time>2021-05-02T21:08:14Z</time>
      </trkpt>
      <trkpt lat="50.838047" lon="4.638287">
        <ele>39.322</ele>
        <time>2021-05-02T21:08:34Z</time>
      </trkpt>
      <trkpt lat="50.838630" lon="4.636718">
        <ele>50.826</ele>
        <time>2021-05-02T21:08:54Z</time>
      </trkpt>
      <trkpt lat="50.839280" lon="4.635747">
        <ele>57.084</ele>
        <time>2021-05-02T21:09:14Z</time>
      </trkpt>
      <trkpt lat="50.839855" lon="4.634685">
        <ele>58.558</ele>
        <time>2021-05-02T21:09:34Z</time>
      </trkpt>
      <trkpt lat="50.840970" lon="4.629575">
        <ele>70.579</ele>
        <time>2021-05-02T21:09:54Z</time>
      </trkpt>
      <trkpt lat="50.840970" lon="4.630854">
        <ele>71.049</ele>
        <time>2021-05-02T21:10:14Z</time>
      </trkpt>
      <trkpt lat="50.842955" lon="4.627062">
        <ele>73.090</ele>
        <time>2021-05-02T21:10:34Z</time>
      </trkpt>
      <trkpt lat="50.844112" lon="4.625334">
        <ele>68.284</ele>
        <time>2021-05-02T21:10:54Z</time>
      </trkpt>
      <trkpt lat="50.846699" lon="4.621992">
        <ele>67.789</ele>
        <time>2021-05-02T21:11:14Z</time>
      </trkpt>
      <trkpt lat="50.846814" lon="4.621724">
        <ele>67.506</ele>
        <time>2021-05-02T21:11:34Z</time>
      </trkpt>
      <trkpt lat="50.849209" lon="4.619602">
        <ele>65.526</ele>
        <time>2021-05-02T21:11:54Z</time>
      </trkpt>
      <trkpt lat="50.850889" lon="4.618473">
        <ele>63.808</ele>
        <time>2021-05-02T21:12:14Z</time>
      </trkpt>
      <trkpt lat="50.852152" lon="4.617433">
        <ele>61.375</ele>
        <time>2021-05-02T21:12:34Z</time>
      </trkpt>
      <trkpt lat="50.853324" lon="4.615959">
        <ele>61.529</ele>
        <time>2021-05-02T21:12:54Z</time>
      </trkpt>
      <trkpt lat="50.853952" lon="4.615408">
        <ele>62.777</ele>
        <time>2021-05-02T21:13:14Z</time>
      </trkpt>
      <trkpt lat="50.854455" lon="4.615021">
        <ele>61.011</ele>
        <time>2021-05-02T21:13:34Z</time>
      </trkpt>
      <trkpt lat="50.856025" lon="4.614315">
        <ele>46.922</ele>
        <time>2021-05-02T21:13:54Z</time>
      </trkpt>
      <trkpt lat="50.855734" lon="4.613299">
        <ele>49.432</ele>
        <time>2021-05-02T21:14:14Z</time>
      </trkpt>
      <trkpt lat="50.855432" lon="4.612033">
        <ele>51.833</ele>
        <time>2021-05-02T21:14:34Z</time>
      </trkpt>
      <trkpt lat="50.855256" lon="4.611061">
        <ele>48.917</ele>
        <time>2021-05-02T21:14:54Z</time>
      </trkpt>
      <trkpt lat="50.855364" lon="4.610908">
        <ele>48.465</ele>
        <time>2021-05-02T21:15:14Z</time>
      </trkpt>
      <trkpt lat="50.856866" lon="4.609923">
        <ele>41.568</ele>
        <time>2021-05-02T21:15:34Z</time>
      </trkpt>
      <trkpt lat="50.858331" lon="4.609540">
        <ele>47.014</ele>
        <time>2021-05-02T21:15:54Z</time>
      </trkpt>
      <trkpt lat="50.859792" lon="4.608915">
        <ele>56.008</ele>
        <time>2021-05-02T21:16:14Z</time>
      </trkpt>
      <trkpt lat="50.860072" lon="4.608506">
        <ele>54.913</ele>
        <time>2021-05-02T21:16:34Z</time>
      </trkpt>
      <trkpt lat="50.861390" lon="4.613279">
        <ele>49.437</ele>
        <time>2021-05-02T21:16:54Z</time>
      </trkpt>
      <trkpt lat="50.861978" lon="4.612690">
        <ele>50.555</ele>
        <time>2021-05-02T21:17:14Z</time>
      </trkpt>
      <trkpt lat="50.862102" lon="4.612532">
        <ele>49.569</ele>
        <time>2021-05-02T21:17:34Z</time>
      </trkpt>
    </trkseg>
  </trk></gpx>